Time;durP1;ratioP1;P1;durP2;ratioP2;P2;SDS_P1;SDS_P2;PMS_P1;PMS_P2;Temp;Humidity;BMP_temperature;BMP_pressure;BME280_temperature;BME280_humidity;BME280_pressure;Samples;Min_cycle;Max_cycle;Signal;HPM_P1;HPM_P2
2021/06/27 00:01:15;;;;;;;14.13;11.33;;;17.40;99.90;;;;;;5062323;28;20229;-52
2021/06/27 00:03:42;;;;;;;13.10;11.70;;;17.40;99.90;;;;;;5064654;28;20195;-47
2021/06/27 00:06:08;;;;;;;12.47;11.20;;;17.30;99.90;;;;;;5053884;28;20214;-49
2021/06/27 00:08:36;;;;;;;12.30;11.10;;;17.30;99.90;;;;;;5063328;28;20680;-46
2021/06/27 00:11:04;;;;;;;13.97;11.43;;;17.20;99.90;;;;;;5049332;28;20229;-50
2021/06/27 00:13:31;;;;;;;12.23;10.77;;;17.20;99.90;;;;;;5061862;28;20211;-46
2021/06/27 00:15:58;;;;;;;12.70;11.40;;;17.10;99.90;;;;;;5065045;28;20273;-47
2021/06/27 00:18:27;;;;;;;12.50;10.97;;;17.10;99.90;;;;;;5058000;28;20826;-49
2021/06/27 00:20:57;;;;;;;11.63;10.43;;;17.00;99.90;;;;;;5056099;28;20215;-46
2021/06/27 00:23:26;;;;;;;12.10;10.80;;;17.00;99.90;;;;;;5060095;28;20205;-46
2021/06/27 00:25:53;;;;;;;12.07;10.77;;;16.90;99.90;;;;;;5049991;28;20221;-45
2021/06/27 00:28:21;;;;;;;14.83;12.33;;;16.90;99.90;;;;;;5060732;28;20575;-47
2021/06/27 00:30:49;;;;;;;13.03;11.73;;;17.00;99.90;;;;;;5064613;28;20250;-46
2021/06/27 00:33:16;;;;;;;13.83;11.93;;;17.00;99.90;;;;;;5061696;28;20221;-47
2021/06/27 00:35:44;;;;;;;13.53;11.43;;;17.00;99.90;;;;;;5056259;28;20195;-47
2021/06/27 00:38:11;;;;;;;12.70;11.40;;;16.90;99.90;;;;;;5062279;28;20210;-48
2021/06/27 00:40:39;;;;;;;13.60;11.33;;;16.90;99.90;;;;;;5062935;28;20218;-51
2021/06/27 00:43:07;;;;;;;13.07;11.67;;;16.90;99.90;;;;;;5048531;28;20205;-50
2021/06/27 00:45:35;;;;;;;12.67;11.57;;;16.90;99.90;;;;;;5062131;28;20197;-46
2021/06/27 00:48:03;;;;;;;14.37;12.37;;;16.80;99.90;;;;;;5060374;28;20312;-50
2021/06/27 00:50:32;;;;;;;12.57;11.27;;;16.70;99.90;;;;;;5052384;28;20455;-49
2021/06/27 00:53:01;;;;;;;12.03;10.67;;;16.70;99.90;;;;;;5063987;28;20273;-52
2021/06/27 00:55:28;;;;;;;15.13;13.63;;;16.60;99.90;;;;;;5060445;28;20722;-46
2021/06/27 00:57:55;;;;;;;14.83;13.13;;;16.60;99.90;;;;;;5049055;28;20207;-50
2021/06/27 01:00:23;;;;;;;13.83;12.40;;;16.60;99.90;;;;;;5056484;28;20851;-46
2021/06/27 01:02:51;;;;;;;13.13;11.60;;;16.60;99.90;;;;;;5061581;28;20229;-46
2021/06/27 01:05:19;;;;;;;14.70;12.47;;;16.60;99.90;;;;;;5060345;28;20662;-46
2021/06/27 01:07:46;;;;;;;15.83;13.00;;;16.60;99.90;;;;;;5055441;28;20214;-50
2021/06/27 01:10:16;;;;;;;15.70;13.17;;;16.60;99.90;;;;;;5061134;28;20222;-48
2021/06/27 01:12:43;;;;;;;13.67;12.33;;;16.60;99.90;;;;;;5048981;28;20203;-51
2021/06/27 01:15:12;;;;;;;14.47;12.97;;;16.60;99.90;;;;;;5061099;28;20594;-49
2021/06/27 01:17:41;;;;;;;15.30;13.80;;;16.60;99.90;;;;;;5062521;28;20219;-48
2021/06/27 01:20:09;;;;;;;15.60;13.27;;;16.70;99.90;;;;;;5061966;28;20227;-48
2021/06/27 01:22:38;;;;;;;16.10;14.23;;;16.70;99.90;;;;;;5051582;28;20256;-50
2021/06/27 01:25:06;;;;;;;16.93;12.77;;;16.70;99.90;;;;;;5061499;28;20544;-50
2021/06/27 01:27:33;;;;;;;15.33;12.57;;;16.70;99.90;;;;;;5061170;28;20195;-46
2021/06/27 01:30:00;;;;;;;13.67;12.27;;;16.60;99.90;;;;;;5048532;28;20226;-49
2021/06/27 01:32:26;;;;;;;14.97;13.37;;;16.60;99.90;;;;;;5058972;28;20203;-48
2021/06/27 01:34:53;;;;;;;14.00;12.37;;;16.60;99.90;;;;;;5062836;28;20694;-49
2021/06/27 01:37:20;;;;;;;14.30;12.90;;;16.50;99.90;;;;;;5059279;28;20559;-48
2021/06/27 01:39:48;;;;;;;14.57;13.07;;;16.40;99.90;;;;;;5055400;28;20336;-48
2021/06/27 01:42:14;;;;;;;13.50;12.10;;;16.50;99.90;;;;;;5060609;28;20203;-49
2021/06/27 01:44:41;;;;;;;13.93;11.90;;;16.40;99.90;;;;;;5047522;28;20214;-46
2021/06/27 01:47:08;;;;;;;13.63;12.33;;;16.50;99.90;;;;;;5061096;28;20660;-49
2021/06/27 01:49:34;;;;;;;14.30;12.80;;;16.40;99.90;;;;;;5060779;28;20198;-46
2021/06/27 01:52:01;;;;;;;15.53;12.73;;;16.40;99.90;;;;;;5062936;28;20199;-50
2021/06/27 01:54:28;;;;;;;14.53;13.03;;;16.30;99.90;;;;;;5050541;28;22911;-49
2021/06/27 01:56:56;;;;;;;14.77;13.13;;;16.30;99.90;;;;;;5060821;28;20202;-46
2021/06/27 01:59:22;;;;;;;14.30;12.50;;;16.30;99.90;;;;;;5043849;28;20980;-47
2021/06/27 02:01:49;;;;;;;15.07;12.00;;;16.30;99.90;;;;;;5059077;28;20206;-45
2021/06/27 02:04:15;;;;;;;13.90;12.50;;;16.30;99.90;;;;;;5059713;28;20199;-51
2021/06/27 02:06:43;;;;;;;14.57;13.07;;;16.20;99.90;;;;;;5062317;28;20230;-48
2021/06/27 02:09:11;;;;;;;13.97;12.17;;;16.20;99.90;;;;;;5056925;28;20202;-47
2021/06/27 02:11:39;;;;;;;13.70;12.30;;;16.20;99.90;;;;;;5056691;28;20350;-48
2021/06/27 02:14:08;;;;;;;13.23;11.93;;;16.20;99.90;;;;;;5061805;28;21022;-49
2021/06/27 02:16:35;;;;;;;12.97;11.67;;;16.20;99.90;;;;;;5046113;28;20232;-46
2021/06/27 02:19:03;;;;;;;13.20;11.87;;;16.20;99.90;;;;;;5062145;28;20202;-52
2021/06/27 02:21:32;;;;;;;14.17;12.77;;;16.20;99.90;;;;;;5059519;28;20309;-46
2021/06/27 02:24:01;;;;;;;13.03;11.73;;;16.20;99.90;;;;;;5062735;28;20682;-47
2021/06/27 02:26:28;;;;;;;13.87;12.47;;;16.10;99.90;;;;;;5051045;28;20855;-47
2021/06/27 02:28:57;;;;;;;13.97;12.57;;;16.00;99.90;;;;;;5062658;28;20195;-49
2021/06/27 02:31:25;;;;;;;12.80;11.27;;;15.90;99.90;;;;;;5043164;28;20224;-47
2021/06/27 02:33:52;;;;;;;17.07;12.43;;;15.90;99.90;;;;;;5061015;28;20202;-47
2021/06/27 02:36:18;;;;;;;13.00;11.60;;;15.80;99.90;;;;;;5058968;28;20202;-49
2021/06/27 02:38:45;;;;;;;12.43;11.13;;;15.80;99.90;;;;;;5062052;28;20202;-50
2021/06/27 02:41:12;;;;;;;13.23;11.90;;;15.80;99.90;;;;;;5048039;28;20234;-51
2021/06/27 02:43:40;;;;;;;14.07;11.93;;;15.90;99.90;;;;;;5061238;28;20191;-49
2021/06/27 02:46:07;;;;;;;14.10;12.23;;;15.90;99.90;;;;;;5056255;28;20206;-52
2021/06/27 02:48:35;;;;;;;12.67;11.37;;;15.90;99.90;;;;;;5051662;28;20290;-46
2021/06/27 02:51:02;;;;;;;12.53;11.33;;;15.90;99.90;;;;;;5061773;28;20586;-48
2021/06/27 02:53:29;;;;;;;13.93;11.70;;;16.00;99.90;;;;;;5058817;28;20934;-46
2021/06/27 02:58:39;;;;;;;12.97;11.77;;;16.10;99.90;;;;;;5057147;28;20271;-46
2021/06/27 03:01:07;;;;;;;13.97;12.20;;;16.10;99.90;;;;;;5052921;28;20230;-49
2021/06/27 03:03:35;;;;;;;15.37;12.80;;;16.00;99.90;;;;;;5042542;28;20950;-50
2021/06/27 03:06:02;;;;;;;14.50;12.63;;;15.90;99.90;;;;;;5061667;28;20201;-48
2021/06/27 03:08:29;;;;;;;13.97;12.50;;;15.90;99.90;;;;;;5058717;28;20198;-48
2021/06/27 03:10:56;;;;;;;14.23;12.27;;;15.80;99.90;;;;;;5062123;28;20215;-46
2021/06/27 03:13:22;;;;;;;15.40;12.23;;;15.80;99.90;;;;;;5049911;28;20199;-47
2021/06/27 03:15:49;;;;;;;13.67;11.47;;;15.90;99.90;;;;;;5055853;28;20219;-46
2021/06/27 03:18:16;;;;;;;12.43;11.13;;;15.90;99.90;;;;;;5041976;28;20277;-52
2021/06/27 03:20:44;;;;;;;13.57;12.17;;;16.00;99.90;;;;;;5058221;28;20687;-46
2021/06/27 03:23:12;;;;;;;14.20;12.43;;;16.00;99.90;;;;;;5054598;28;20199;-51
2021/06/27 03:25:40;;;;;;;13.17;11.53;;;16.00;99.90;;;;;;5054007;28;20183;-48
2021/06/27 03:28:06;;;;;;;15.50;12.30;;;16.10;99.90;;;;;;5049404;28;20252;-52
2021/06/27 03:30:33;;;;;;;13.70;12.30;;;16.10;99.90;;;;;;5050099;28;20969;-46
2021/06/27 03:33:00;;;;;;;14.30;12.80;;;16.20;99.90;;;;;;5055162;28;20203;-46
2021/06/27 03:35:27;;;;;;;15.13;13.17;;;16.20;99.90;;;;;;5039937;28;20437;-48
2021/06/27 03:38:02;;;;;;;13.80;12.50;;;16.20;99.90;;;;;;5061422;28;20206;-48
2021/06/27 03:40:29;;;;;;;14.33;12.10;;;16.20;99.90;;;;;;5058335;28;20780;-49
2021/06/27 03:42:58;;;;;;;14.57;12.60;;;16.20;99.90;;;;;;5049791;28;20199;-47
2021/06/27 03:45:24;;;;;;;15.03;13.50;;;16.20;99.90;;;;;;5058266;28;20988;-46
2021/06/27 03:47:51;;;;;;;15.70;14.07;;;16.20;99.90;;;;;;5061895;28;20313;-47
2021/06/27 03:50:19;;;;;;;17.07;14.80;;;16.30;99.90;;;;;;5045626;28;20262;-51
2021/06/27 03:52:46;;;;;;;19.17;16.00;;;16.30;99.90;;;;;;5060434;28;20230;-46
2021/06/27 03:55:16;;;;;;;19.17;15.50;;;16.30;99.90;;;;;;5059300;28;20223;-50
2021/06/27 03:57:42;;;;;;;18.87;15.10;;;16.30;99.90;;;;;;5053461;28;20199;-46
2021/06/27 04:00:11;;;;;;;17.60;14.90;;;16.30;99.90;;;;;;5062841;28;20219;-48
2021/06/27 04:02:41;;;;;;;18.47;14.80;;;16.30;99.90;;;;;;5062909;28;20199;-46
2021/06/27 04:05:09;;;;;;;20.47;15.33;;;16.30;99.90;;;;;;5063926;28;20209;-47
2021/06/27 04:07:36;;;;;;;22.50;15.20;;;16.40;99.90;;;;;;5046795;28;20206;-46
2021/06/27 04:10:03;;;;;;;23.13;16.30;;;16.50;99.90;;;;;;5059518;28;20222;-51
2021/06/27 04:12:31;;;;;;;24.50;17.33;;;16.50;99.90;;;;;;5052664;28;20512;-48
2021/06/27 04:14:57;;;;;;;21.93;16.17;;;16.60;99.90;;;;;;5060300;28;20801;-49
2021/06/27 04:17:24;;;;;;;23.40;17.63;;;16.60;99.90;;;;;;5060999;28;20209;-47
2021/06/27 04:19:51;;;;;;;22.33;16.33;;;16.60;99.90;;;;;;5065030;28;20214;-46
2021/06/27 04:22:18;;;;;;;21.43;16.00;;;16.70;99.90;;;;;;5046596;28;20207;-51
2021/06/27 04:24:45;;;;;;;24.97;16.30;;;16.70;99.90;;;;;;5064691;28;20187;-46
2021/06/27 04:27:12;;;;;;;23.87;15.70;;;16.70;99.90;;;;;;5059972;28;20203;-48
2021/06/27 04:29:40;;;;;;;22.43;16.23;;;16.70;99.90;;;;;;5053341;28;20210;-52
2021/06/27 04:32:07;;;;;;;23.93;16.27;;;16.80;99.90;;;;;;5051129;28;20206;-47
2021/06/27 04:34:34;;;;;;;27.33;15.83;;;16.80;99.90;;;;;;5062272;28;20206;-48
2021/06/27 04:37:01;;;;;;;23.43;15.50;;;16.80;99.90;;;;;;5047007;28;20203;-48
2021/06/27 04:39:28;;;;;;;20.70;14.73;;;16.90;99.90;;;;;;5063271;28;20202;-49
2021/06/27 04:41:55;;;;;;;20.27;15.17;;;16.80;99.90;;;;;;5061472;28;20392;-48
2021/06/27 04:44:21;;;;;;;18.97;14.37;;;16.90;99.90;;;;;;5052763;28;20195;-48
2021/06/27 04:46:49;;;;;;;24.40;16.27;;;16.90;99.90;;;;;;5059840;28;20199;-46
2021/06/27 04:49:17;;;;;;;23.40;16.47;;;17.00;99.90;;;;;;5064533;28;20195;-46
2021/06/27 04:51:43;;;;;;;23.10;15.53;;;17.00;99.90;;;;;;5060640;28;20305;-49
2021/06/27 04:54:10;;;;;;;18.40;14.67;;;17.00;99.90;;;;;;5049052;28;20316;-47
2021/06/27 04:56:37;;;;;;;19.33;14.90;;;17.00;99.90;;;;;;5061496;28;20222;-51
2021/06/27 04:59:03;;;;;;;18.00;15.10;;;17.10;99.90;;;;;;5063116;28;20815;-46
2021/06/27 05:01:31;;;;;;;15.87;13.83;;;17.10;99.90;;;;;;5037762;28;20219;-46
2021/06/27 05:03:59;;;;;;;17.07;13.47;;;17.20;99.90;;;;;;5062891;28;20559;-49
2021/06/27 05:06:26;;;;;;;15.00;13.50;;;17.20;99.90;;;;;;5061529;28;20190;-46
2021/06/27 05:08:52;;;;;;;18.57;14.70;;;17.30;99.90;;;;;;5041696;28;20209;-50
2021/06/27 05:11:19;;;;;;;19.23;14.70;;;17.30;99.90;;;;;;5059853;28;20223;-48
2021/06/27 05:13:46;;;;;;;16.87;13.60;;;17.40;99.90;;;;;;5062749;28;20289;-49
2021/06/27 05:16:13;;;;;;;16.23;13.70;;;17.40;99.90;;;;;;5050740;28;20230;-52
2021/06/27 05:18:40;;;;;;;18.07;16.17;;;17.50;99.90;;;;;;5052218;28;20206;-49
2021/06/27 05:21:08;;;;;;;21.03;16.73;;;17.50;99.90;;;;;;5062405;28;20219;-48
2021/06/27 05:23:35;;;;;;;20.77;16.27;;;17.60;99.90;;;;;;5046728;28;20207;-52
2021/06/27 05:26:02;;;;;;;20.33;16.43;;;17.60;99.90;;;;;;5050292;28;20213;-46
2021/06/27 05:28:30;;;;;;;19.70;16.47;;;17.70;99.90;;;;;;5061071;28;20264;-46
2021/06/27 05:30:57;;;;;;;20.10;16.57;;;17.80;99.90;;;;;;5044333;28;20415;-47
2021/06/27 05:33:23;;;;;;;19.13;16.00;;;17.90;99.90;;;;;;5060417;28;20675;-48
2021/06/27 05:35:50;;;;;;;20.37;15.13;;;17.90;99.90;;;;;;5053033;28;20233;-51
2021/06/27 05:38:18;;;;;;;17.37;15.40;;;18.00;99.90;;;;;;5047719;28;20207;-46
2021/06/27 05:40:45;;;;;;;21.50;17.63;;;18.00;99.90;;;;;;5037672;28;20678;-46
2021/06/27 05:43:11;;;;;;;20.57;16.53;;;18.10;99.90;;;;;;5062056;28;20198;-50
2021/06/27 05:45:38;;;;;;;18.87;16.17;;;18.10;99.90;;;;;;5056353;28;20239;-48
2021/06/27 05:48:05;;;;;;;21.40;17.20;;;18.20;99.90;;;;;;5048908;28;20206;-46
2021/06/27 05:50:32;;;;;;;21.17;16.13;;;18.20;99.90;;;;;;5060456;28;20738;-48
2021/06/27 05:52:59;;;;;;;22.57;18.07;;;18.30;99.90;;;;;;5060812;28;20206;-46
2021/06/27 05:55:27;;;;;;;23.07;18.00;;;18.40;99.90;;;;;;5048661;28;20219;-50
2021/06/27 05:57:53;;;;;;;23.50;18.37;;;18.50;99.90;;;;;;5054015;28;20190;-46
2021/06/27 06:00:21;;;;;;;21.20;17.03;;;18.50;99.90;;;;;;5061598;28;20223;-49
2021/06/27 06:02:48;;;;;;;20.70;16.83;;;18.50;99.90;;;;;;5049677;28;20314;-48
2021/06/27 06:05:14;;;;;;;21.27;16.67;;;18.60;99.90;;;;;;5058641;28;20932;-46
2021/06/27 06:07:41;;;;;;;20.90;16.60;;;18.60;99.90;;;;;;5058221;28;20221;-48
2021/06/27 06:10:09;;;;;;;20.77;17.70;;;18.70;99.90;;;;;;5052578;28;20227;-48
2021/06/27 06:12:37;;;;;;;19.80;16.33;;;18.70;99.90;;;;;;5044388;28;20207;-51
2021/06/27 06:15:04;;;;;;;20.70;17.47;;;18.80;99.90;;;;;;5061735;28;20222;-47
2021/06/27 06:17:31;;;;;;;21.07;16.50;;;18.90;99.90;;;;;;5060238;28;20195;-51
2021/06/27 06:19:58;;;;;;;20.37;17.17;;;18.90;99.90;;;;;;5048499;28;20463;-48
2021/06/27 06:22:24;;;;;;;19.87;16.27;;;19.00;99.90;;;;;;5061325;28;20651;-49
2021/06/27 06:24:51;;;;;;;20.60;15.87;;;19.00;99.90;;;;;;5060424;28;20191;-51
2021/06/27 06:27:18;;;;;;;18.30;15.73;;;18.90;99.90;;;;;;5042016;28;20209;-50
2021/06/27 06:29:46;;;;;;;21.77;16.43;;;19.00;99.90;;;;;;5058404;28;20214;-49
2021/06/27 06:32:12;;;;;;;16.53;14.80;;;19.00;99.90;;;;;;5059432;28;20575;-50
2021/06/27 06:34:39;;;;;;;18.73;15.13;;;19.10;99.90;;;;;;5050497;28;20194;-51
2021/06/27 06:37:06;;;;;;;17.20;14.70;;;19.10;99.90;;;;;;5055332;28;20214;-51
2021/06/27 06:39:32;;;;;;;17.37;14.70;;;19.20;99.90;;;;;;5060978;28;20202;-49
2021/06/27 06:41:59;;;;;;;19.87;15.10;;;19.30;99.90;;;;;;5049970;28;20663;-52
2021/06/27 06:44:26;;;;;;;16.77;14.43;;;19.40;99.90;;;;;;5055024;28;20198;-49
2021/06/27 06:46:54;;;;;;;16.23;13.80;;;19.40;99.90;;;;;;5061778;28;20191;-51
2021/06/27 06:49:20;;;;;;;18.40;14.20;;;19.50;99.90;;;;;;5059333;28;20195;-52
2021/06/27 06:51:47;;;;;;;16.77;14.03;;;19.60;99.90;;;;;;5056431;28;20222;-50
2021/06/27 06:54:14;;;;;;;14.67;13.00;;;19.70;99.90;;;;;;5049323;28;20277;-50
2021/06/27 06:56:41;;;;;;;16.00;13.80;;;19.80;99.90;;;;;;5047379;28;20222;-50
2021/06/27 06:59:07;;;;;;;17.53;14.63;;;19.90;99.90;;;;;;5040982;28;20215;-53
2021/06/27 07:01:35;;;;;;;17.90;14.23;;;19.90;99.90;;;;;;5049734;28;20219;-49
2021/06/27 07:04:03;;;;;;;17.67;14.23;;;20.00;99.90;;;;;;5054924;28;20195;-56
2021/06/27 07:06:29;;;;;;;17.57;14.77;;;20.00;99.90;;;;;;5050470;28;20975;-52
2021/06/27 07:08:56;;;;;;;17.00;13.97;;;20.00;99.90;;;;;;5054596;28;20205;-47
2021/06/27 07:11:22;;;;;;;16.73;13.90;;;20.00;99.90;;;;;;5048065;28;20417;-48
2021/06/27 07:13:49;;;;;;;15.13;12.70;;;20.00;99.90;;;;;;5045247;28;20581;-49
2021/06/27 07:16:16;;;;;;;17.07;13.30;;;20.00;99.90;;;;;;5046728;28;20215;-55
2021/06/27 07:18:42;;;;;;;17.37;14.70;;;20.00;99.90;;;;;;5057737;28;20206;-50
2021/06/27 07:21:10;;;;;;;17.47;14.67;;;20.00;99.90;;;;;;5050163;28;20226;-56
2021/06/27 07:23:37;;;;;;;18.00;14.63;;;20.00;99.90;;;;;;5056171;28;20919;-50
2021/06/27 07:26:04;;;;;;;15.77;13.20;;;20.00;99.90;;;;;;5054675;28;20690;-57
2021/06/27 07:28:31;;;;;;;17.97;14.10;;;20.10;99.90;;;;;;5037600;28;20221;-47
2021/06/27 07:30:59;;;;;;;17.90;13.17;;;20.10;99.90;;;;;;5051241;28;20219;-48
2021/06/27 07:33:25;;;;;;;18.33;13.87;;;20.10;99.90;;;;;;5051745;28;20920;-48
2021/06/27 07:35:52;;;;;;;18.23;12.40;;;20.20;99.90;;;;;;5063801;28;20228;-48
2021/06/27 07:38:20;;;;;;;13.37;11.80;;;20.20;99.90;;;;;;5049731;28;20211;-52
2021/06/27 07:40:47;;;;;;;12.90;10.53;;;20.20;99.90;;;;;;5058833;28;20256;-50
2021/06/27 07:43:14;;;;;;;13.40;10.43;;;20.20;99.90;;;;;;5054693;28;20206;-51
2021/06/27 07:45:42;;;;;;;12.10;10.83;;;20.30;99.90;;;;;;5048856;28;20220;-47
2021/06/27 07:48:09;;;;;;;12.23;10.07;;;20.40;99.90;;;;;;5061042;28;20281;-54
2021/06/27 07:50:36;;;;;;;11.37;9.83;;;20.40;99.90;;;;;;5061539;28;20945;-46
2021/06/27 07:53:03;;;;;;;10.70;9.60;;;20.50;99.90;;;;;;5056944;28;20214;-49
2021/06/27 07:55:31;;;;;;;13.57;10.90;;;20.50;99.90;;;;;;5060739;28;20225;-48
2021/06/27 07:57:58;;;;;;;11.33;10.13;;;20.60;99.90;;;;;;5065083;28;20214;-51
2021/06/27 08:00:25;;;;;;;14.17;10.63;;;20.70;99.90;;;;;;5048342;28;20245;-51
2021/06/27 08:02:51;;;;;;;10.77;9.67;;;20.70;99.90;;;;;;5064863;28;20286;-46
2021/06/27 08:05:18;;;;;;;11.73;10.47;;;20.70;99.90;;;;;;5061585;28;20277;-49
2021/06/27 08:07:45;;;;;;;12.77;10.67;;;20.80;99.90;;;;;;5065252;28;20199;-47
2021/06/27 08:10:13;;;;;;;12.80;11.03;;;20.80;99.90;;;;;;5056692;28;20226;-48
2021/06/27 08:12:41;;;;;;;11.80;10.60;;;20.90;99.90;;;;;;5064884;28;20270;-46
2021/06/27 08:15:10;;;;;;;12.43;11.13;;;21.00;99.90;;;;;;5063281;28;20636;-49
2021/06/27 08:17:37;;;;;;;9.67;8.67;;;21.00;99.90;;;;;;5049366;28;20208;-46
2021/06/27 08:20:05;;;;;;;12.50;10.60;;;21.10;99.90;;;;;;5063483;28;20218;-51
2021/06/27 08:22:31;;;;;;;11.03;9.80;;;21.20;99.90;;;;;;5062780;28;20190;-46
2021/06/27 08:24:58;;;;;;;11.40;10.20;;;21.20;99.90;;;;;;5058137;28;20561;-52
2021/06/27 08:27:25;;;;;;;12.40;11.13;;;21.20;99.90;;;;;;5061369;28;20288;-49
2021/06/27 08:29:53;;;;;;;13.50;10.27;;;21.20;99.90;;;;;;5064822;28;20206;-46
2021/06/27 08:32:19;;;;;;;12.13;9.90;;;21.20;99.90;;;;;;5044646;28;20203;-47
2021/06/27 08:34:46;;;;;;;11.40;10.30;;;21.30;99.90;;;;;;5064647;28;20202;-48
2021/06/27 08:37:12;;;;;;;11.07;9.90;;;21.50;99.90;;;;;;5061832;28;20219;-53
2021/06/27 08:39:39;;;;;;;14.37;10.77;;;21.60;99.90;;;;;;5063632;28;20213;-47
2021/06/27 08:42:07;;;;;;;10.40;9.00;;;21.70;99.90;;;;;;5052825;28;20211;-51
2021/06/27 08:44:35;;;;;;;11.63;9.77;;;21.60;99.90;;;;;;5063570;28;20948;-48
2021/06/27 08:47:04;;;;;;;10.90;9.30;;;21.60;99.90;;;;;;5064111;28;20224;-51
2021/06/27 08:49:32;;;;;;;12.23;10.67;;;21.60;99.90;;;;;;5056865;28;20214;-48
2021/06/27 08:51:59;;;;;;;12.30;10.00;;;21.70;99.90;;;;;;5067240;28;20202;-50
2021/06/27 08:54:26;;;;;;;11.23;9.73;;;21.70;99.90;;;;;;5063691;28;20191;-48
2021/06/27 08:56:55;;;;;;;12.13;9.73;;;21.90;99.90;;;;;;5061207;28;20313;-47
2021/06/27 08:59:22;;;;;;;10.63;9.53;;;22.00;99.90;;;;;;5063917;28;20885;-47
2021/06/27 09:01:48;;;;;;;10.30;8.90;;;22.10;99.90;;;;;;5065058;28;20218;-48
2021/06/27 09:04:18;;;;;;;10.90;9.70;;;22.20;99.90;;;;;;5049585;28;20229;-52
2021/06/27 09:06:45;;;;;;;11.07;8.80;;;22.10;99.90;;;;;;5067940;28;20195;-45
2021/06/27 09:09:14;;;;;;;11.47;9.87;;;22.20;99.90;;;;;;5064580;28;20206;-49
2021/06/27 09:11:42;;;;;;;11.63;10.23;;;22.30;99.90;;;;;;5062038;28;20222;-46
2021/06/27 09:14:27;;;;;;;10.03;8.07;;;22.20;99.90;;;;;;5065652;28;20203;-51
2021/06/27 09:17:09;;;;;;;10.83;8.63;;;22.20;99.90;;;;;;5067587;28;20631;-49
2021/06/27 09:19:57;;;;;;;10.97;9.53;;;22.30;99.90;;;;;;5045166;28;20438;-46
2021/06/27 09:22:26;;;;;;;9.87;8.57;;;22.40;99.90;;;;;;5060715;28;20911;-46
2021/06/27 09:24:53;;;;;;;10.90;9.27;;;22.30;99.90;;;;;;5066551;28;20229;-48
2021/06/27 09:27:22;;;;;;;9.90;8.90;;;22.30;99.90;;;;;;5056543;28;20916;-47
2021/06/27 09:29:49;;;;;;;12.45;10.25;;;22.40;99.90;;;;;;5064818;28;20317;-49
2021/06/27 09:32:16;;;;;;;10.77;9.70;;;22.40;99.90;;;;;;5060415;28;20207;-47
2021/06/27 09:34:43;;;;;;;12.83;10.13;;;22.40;99.90;;;;;;5051258;28;20213;-48
2021/06/27 09:37:13;;;;;;;10.70;9.65;;;22.40;99.90;;;;;;5063513;28;20698;-49
2021/06/27 09:39:54;;;;;;;11.27;10.07;;;22.30;99.90;;;;;;5065297;28;20205;-46
2021/06/27 09:42:21;;;;;;;15.23;10.48;;;22.30;99.90;;;;;;5050753;28;20445;-49
2021/06/27 09:45:00;;;;;;;11.05;10.00;;;22.40;99.90;;;;;;5060399;28;20213;-46
2021/06/27 09:47:27;;;;;;;10.60;9.50;;;22.60;99.90;;;;;;5058868;28;20236;-47
2021/06/27 09:49:54;;;;;;;11.00;9.82;;;22.80;99.90;;;;;;5052402;28;20222;-48
2021/06/27 09:52:36;;;;;;;10.00;8.35;;;22.70;99.90;;;;;;5061743;28;20202;-47
2021/06/27 09:55:08;;;;;;;12.25;9.40;;;22.50;99.90;;;;;;5060890;28;20209;-47
2021/06/27 09:57:34;;;;;;;10.75;9.63;;;22.50;99.90;;;;;;5063950;28;20245;-46
2021/06/27 10:00:01;;;;;;;9.10;8.07;;;22.40;99.90;;;;;;5056468;28;20231;-50
2021/06/27 10:02:28;;;;;;;10.90;9.80;;;22.60;99.90;;;;;;5060423;28;20202;-50
2021/06/27 10:04:54;;;;;;;14.47;10.07;;;22.70;99.90;;;;;;5051773;28;20209;-49
2021/06/27 10:07:36;;;;;;;12.43;10.27;;;22.80;99.90;;;;;;5061923;28;20186;-47
2021/06/27 10:10:18;;;;;;;10.60;9.60;;;22.80;99.90;;;;;;5064202;28;20313;-51
2021/06/27 10:12:45;;;;;;;12.00;9.57;;;22.80;99.90;;;;;;5060940;28;20280;-48
2021/06/27 10:15:14;;;;;;;9.57;8.20;;;22.80;99.90;;;;;;5056928;28;20206;-52
2021/06/27 10:17:41;;;;;;;8.82;7.95;;;22.80;99.90;;;;;;5065927;28;20695;-48
2021/06/27 10:20:10;;;;;;;8.70;7.82;;;23.00;99.90;;;;;;5056392;28;20293;-48
2021/06/27 10:22:37;;;;;;;8.52;7.72;;;23.00;99.90;;;;;;5060312;28;20807;-47
2021/06/27 10:25:06;;;;;;;8.35;7.55;;;23.10;99.90;;;;;;5065195;28;20330;-48
2021/06/27 10:27:33;;;;;;;10.40;8.75;;;23.30;99.90;;;;;;5064090;28;20229;-48
2021/06/27 10:30:02;;;;;;;8.85;7.93;;;23.20;99.90;;;;;;5055931;28;20230;-51
2021/06/27 10:32:28;;;;;;;10.88;9.15;;;23.20;99.90;;;;;;5060076;28;20204;-47
2021/06/27 10:34:56;;;;;;;8.10;7.30;;;23.30;99.90;;;;;;5065599;28;20203;-48
2021/06/27 10:37:31;;;;;;;12.50;8.13;;;23.40;99.90;;;;;;5046350;28;20214;-47
2021/06/27 10:39:59;;;;;;;9.23;8.23;;;23.40;99.90;;;;;;5065610;28;20221;-49
2021/06/27 10:42:56;;;;;;;8.32;7.53;;;23.20;99.90;;;;;;5062452;28;20199;-47
2021/06/27 10:45:25;;;;;;;8.05;7.35;;;23.10;99.90;;;;;;5048241;28;20202;-48
2021/06/27 10:47:51;;;;;;;9.10;7.45;;;23.20;99.90;;;;;;5059885;28;20195;-47
2021/06/27 10:50:19;;;;;;;7.70;7.00;;;23.10;99.90;;;;;;5061817;28;20246;-49
2021/06/27 10:53:00;;;;;;;8.02;7.00;;;23.10;99.90;;;;;;5044203;28;20213;-48
2021/06/27 10:55:28;;;;;;;7.03;6.32;;;23.20;99.90;;;;;;5061601;28;20365;-48
2021/06/27 10:57:59;;;;;;;8.18;7.38;;;23.20;99.90;;;;;;5066001;28;20301;-47
2021/06/27 11:00:27;;;;;;;7.22;6.57;;;23.30;99.90;;;;;;5056671;28;20458;-46
2021/06/27 11:02:54;;;;;;;9.25;6.32;;;23.40;99.90;;;;;;5065758;28;20653;-48
2021/06/27 11:05:46;;;;;;;6.55;5.95;;;23.50;99.90;;;;;;5062563;28;20191;-48
2021/06/27 11:08:33;;;;;;;5.07;4.68;;;23.60;99.90;;;;;;5052462;28;20679;-52
2021/06/27 11:11:03;;;;;;;5.43;4.82;;;23.50;99.90;;;;;;5069293;28;20218;-53
2021/06/27 11:13:31;;;;;;;6.05;5.35;;;23.40;99.90;;;;;;5067280;28;20209;-48
2021/06/27 11:16:21;;;;;;;5.68;5.15;;;23.40;99.90;;;;;;5064131;28;20218;-46
2021/06/27 11:18:50;;;;;;;6.38;4.65;;;23.50;99.90;;;;;;5069745;28;20702;-47
2021/06/27 11:21:33;;;;;;;5.30;4.80;;;23.70;99.90;;;;;;5066051;28;20213;-51
2021/06/27 11:24:08;;;;;;;4.95;4.53;;;23.70;99.90;;;;;;5050710;28;20206;-49
2021/06/27 11:26:54;;;;;;;6.28;4.85;;;23.80;99.90;;;;;;5067524;28;20277;-47
2021/06/27 11:29:48;;;;;;;5.88;5.32;;;23.90;99.90;;;;;;5066022;28;20843;-46
2021/06/27 11:32:49;;;;;;;6.13;5.53;;;24.00;99.90;;;;;;5058655;28;20207;-52
2021/06/27 11:35:37;;;;;;;5.28;4.88;;;23.90;99.90;;;;;;5065704;28;20623;-47
2021/06/27 11:38:04;;;;;;;6.28;5.10;;;24.00;99.90;;;;;;5059310;28;20226;-51
2021/06/27 11:40:45;;;;;;;5.10;4.60;;;23.90;99.90;;;;;;5058982;28;20418;-47
2021/06/27 11:43:12;;;;;;;5.82;5.35;;;24.10;99.90;;;;;;5066883;28;20206;-49
2021/06/27 11:45:43;;;;;;;5.57;5.00;;;24.30;99.90;;;;;;5069216;28;20230;-51
2021/06/27 11:48:10;;;;;;;4.70;4.30;;;24.30;99.50;;;;;;5061153;28;20290;-48
2021/06/27 11:50:40;;;;;;;4.55;4.20;;;24.10;99.70;;;;;;5068134;28;20808;-47
2021/06/27 11:53:08;;;;;;;4.53;4.13;;;24.00;99.60;;;;;;5059909;28;20206;-48
2021/06/27 11:55:37;;;;;;;3.60;3.30;;;23.80;99.40;;;;;;5061183;28;20190;-47
2021/06/27 11:58:06;;;;;;;3.95;3.65;;;23.80;99.60;;;;;;5068150;28;20222;-50
2021/06/27 12:00:35;;;;;;;4.15;3.85;;;23.90;99.30;;;;;;5065082;28;20321;-49
2021/06/27 12:03:08;;;;;;;4.65;4.22;;;24.00;99.70;;;;;;5062921;28;20285;-52
2021/06/27 12:05:35;;;;;;;4.07;3.67;;;24.30;98.60;;;;;;5066140;28;20189;-46
2021/06/27 12:08:07;;;;;;;5.07;4.68;;;24.40;98.20;;;;;;5068299;28;20195;-49
2021/06/27 12:10:35;;;;;;;4.82;4.22;;;24.50;98.00;;;;;;5044919;28;20218;-47
2021/06/27 12:13:03;;;;;;;5.60;4.55;;;24.40;98.40;;;;;;5066790;28;20612;-53
2021/06/27 12:15:36;;;;;;;4.38;3.97;;;24.30;98.50;;;;;;5065365;28;20221;-47
2021/06/27 12:18:06;;;;;;;3.42;3.20;;;24.30;98.90;;;;;;5067428;28;20226;-51
2021/06/27 12:20:37;;;;;;;3.42;3.13;;;24.40;98.50;;;;;;5059418;28;20244;-47
2021/06/27 12:23:06;;;;;;;2.95;2.65;;;24.40;97.40;;;;;;5067411;28;20195;-51
2021/06/27 12:25:35;;;;;;;2.78;2.58;;;24.40;96.40;;;;;;5051115;28;22414;-48
2021/06/27 12:28:03;;;;;;;3.40;3.10;;;24.40;95.60;;;;;;5067392;28;20660;-50
2021/06/27 12:30:47;;;;;;;3.28;3.08;;;24.60;95.50;;;;;;5064988;28;20953;-47
2021/06/27 12:33:17;;;;;;;3.33;2.92;;;24.70;95.40;;;;;;5065397;28;20202;-50
2021/06/27 12:35:47;;;;;;;3.90;2.90;;;24.80;95.40;;;;;;5056308;28;20202;-49
2021/06/27 12:38:14;;;;;;;3.20;2.90;;;24.80;95.30;;;;;;5065563;28;20218;-51
2021/06/27 12:40:45;;;;;;;2.72;2.53;;;24.70;95.10;;;;;;5067528;28;20293;-46